Latest Weather Observations for Mount Boyce

IDN60901

Issued at 8:11 pm EST Saturday 1 October 2016 (issued every 10 minutes, with the page automatically refreshed every 10 minutes)

About weather observations | Map of Sydney area stations | Latest observations for Sydney area | Other Formats
Station Details ID: 063292 Name: MOUNT BOYCE AWS Lat: -33.62 Lon: 150.27 Height: 1080.0 m
Data from the previous 72 hours. | See also: Recent months at Mount Boyce
Date/Time
EST
Temp
°C
App
Temp
°C
Dew
Point
°C
Rel
Hum
%
Delta-T
°C
Wind Press
QNH
hPa
Press
MSL
hPa
Rain since
9am
mm
Dir  Spd
km/h
Gust
km/h
Spd
kts
Gust
kts
01/08:00pm 7.2 0.9 3.8 79 1.6 W 26 43 14 23 - - 0.0
01/07:30pm 7.2 0.5 3.6 78 1.6 W 28 46 15 25 - - 0.0
01/07:28pm 7.2 0.5 3.6 78 1.6 W 28 46 15 25 - - 0.0
01/07:00pm 7.0 0.9 2.9 75 1.8 W 24 46 13 25 - - 0.0
01/06:30pm 7.1 -0.6 2.4 72 2.1 WSW 32 54 17 29 - - 0.0
01/06:00pm 7.6 -1.1 2.3 69 2.4 W 37 63 20 34 - - 0.0
01/05:30pm 7.9 -1.0 2.8 70 2.3 W 39 59 21 32 - - 0.0
01/05:00pm 8.2 -1.7 2.7 68 2.5 W 44 76 24 41 - - 0.0
01/04:30pm 8.3 -1.9 3.4 71 2.2 W 46 74 25 40 - - 0.0
01/04:00pm 8.5 0.1 3.8 72 2.2 W 37 61 20 33 - - 0.0
01/03:32pm 8.9 -0.1 4.5 74 2.1 W 41 59 22 32 - - 0.0
01/03:30pm 8.6 -0.8 4.2 74 2.1 W 43 59 23 32 - - 0.0
01/03:00pm 8.0 -0.7 4.2 77 1.8 WSW 39 57 21 31 - - 0.0
01/02:30pm 7.9 -1.6 3.9 76 1.8 W 43 70 23 38 - - 0.0
01/02:00pm 8.3 -2.1 4.1 75 2.0 W 48 72 26 39 - - 0.0
01/01:36pm 8.1 -2.2 4.5 78 1.7 W 48 72 26 39 - - 0.0
01/01:30pm 8.3 -1.2 4.7 78 1.7 W 44 69 24 37 - - 0.0
01/01:26pm 7.8 -1.7 4.9 82 1.4 W 44 65 24 35 - - 0.0
01/01:23pm 7.4 -2.1 4.9 84 1.2 W 44 59 24 32 - - 0.0
01/01:19pm 7.5 -2.1 4.5 81 1.4 W 44 69 24 37 - - 0.0
01/01:00pm 7.2 -1.8 4.5 83 1.3 WSW 41 67 22 36 - - 0.0
01/12:38pm 7.2 -1.5 4.2 81 1.4 W 39 76 21 41 - - 0.0
01/12:35pm 7.2 -1.5 4.2 81 1.4 W 39 57 21 31 - - 0.0
01/12:30pm 7.5 -1.6 3.9 78 1.7 W 41 61 22 33 - - 0.0
01/12:00pm 7.9 -1.7 4.5 79 1.6 W 44 74 24 40 - - 0.0
01/11:37am 7.2 -1.1 4.2 81 1.4 WSW 37 63 20 34 - - 0.0
01/11:30am 8.1 -0.6 4.3 77 1.8 W 39 67 21 36 - - 0.0
01/11:00am 7.0 -0.8 5.0 87 0.9 WSW 35 54 19 29 - - 0.0
01/10:54am 6.7 -1.5 5.0 89 0.8 W 37 63 20 34 - - 0.0
01/10:40am 6.2 -3.3 4.7 90 0.7 W 44 67 24 36 - - 0.0
01/10:37am 6.1 -3.9 4.3 88 0.8 W 46 67 25 36 - - 0.0
01/10:30am 6.7 -2.1 3.5 80 1.4 W 39 65 21 35 - - 0.0
01/10:00am 7.1 -1.7 3.5 78 1.6 WSW 39 70 21 38 - - 0.0
01/09:30am 7.2 -1.3 3.4 77 1.7 W 37 67 20 36 - - 0.0
01/09:00am 7.1 -2.1 3.3 77 1.7 W 41 65 22 35 - - 0.8
01/08:30am 6.8 -2.0 3.8 81 1.4 W 39 69 21 37 - - 0.8
01/08:26am 6.8 -2.3 3.9 82 1.3 W 41 69 22 37 - - 0.8
01/08:00am 6.5 -3.2 4.0 84 1.1 W 44 69 24 37 - - 0.8
01/07:30am 5.9 -3.5 4.7 92 0.6 W 43 65 23 35 - - 0.8
01/07:00am 6.2 -3.9 4.0 86 1.0 W 46 72 25 39 - - 0.8
01/06:31am 6.2 -3.9 3.7 84 1.1 W 46 70 25 38 - - 0.8
01/06:30am 6.2 -3.9 3.7 84 1.1 W 46 70 25 38 - - 0.8
01/06:00am 6.3 -4.6 3.6 83 1.2 W 50 76 27 41 - - 0.8
01/05:31am 6.3 -5.0 3.5 82 1.3 W 52 80 28 43 - - 0.8
01/05:30am 6.3 -5.0 3.5 82 1.3 W 52 80 28 43 - - 0.8
01/05:00am 6.3 -5.3 3.8 84 1.1 W 54 82 29 44 - - 0.8
01/04:30am 6.3 -5.3 3.8 84 1.1 W 54 83 29 45 - - 0.8
01/04:00am 6.2 -5.8 3.9 85 1.0 W 56 83 30 45 - - 0.8
01/03:30am 6.2 -5.0 4.0 86 1.0 W 52 82 28 44 - - 0.8
01/03:00am 6.1 -5.1 3.8 85 1.0 W 52 85 28 46 - - 0.8
01/02:58am 6.2 -4.6 3.9 85 1.0 W 50 85 27 46 - - 0.8
01/02:30am 6.0 -3.1 4.0 87 0.9 W 41 61 22 33 - - 0.8
01/02:00am 5.8 -3.7 4.1 89 0.8 W 43 65 23 35 - - 0.8
01/01:30am 5.8 -2.5 4.0 88 0.8 W 37 63 20 34 - - 0.8
01/01:00am 5.7 -2.7 3.9 88 0.8 W 37 57 20 31 - - 0.8
01/12:30am 5.7 -2.6 4.0 89 0.8 W 37 69 20 37 - - 0.8
01/12:00am 5.5 -3.2 4.3 92 0.5 W 39 69 21 37 - - 0.6
 
Date/Time
EST
Temp
°C
App
Temp
°C
Dew
Point
°C
Rel
Hum
%
Delta-T
°C
Wind Press
QNH
hPa
Press
MSL
hPa
Rain since
9am
mm
Dir  Spd
km/h
Gust
km/h
Spd
kts
Gust
kts
30/11:30pm 5.5 -2.8 4.3 92 0.5 W 37 61 20 33 - - 0.6
30/11:00pm 5.4 -2.9 4.4 93 0.5 W 37 76 20 41 - - 0.6
30/10:42pm 5.1 -2.2 4.5 96 0.3 W 32 57 17 31 - - 0.6
30/10:30pm 5.1 -2.8 4.5 96 0.3 W 35 65 19 35 - - 0.6
30/10:02pm 4.8 -2.2 4.2 96 0.3 W 30 48 16 26 - - 0.4
30/10:00pm 4.8 -2.6 4.2 96 0.3 W 32 48 17 26 - - 0.4
30/09:53pm 4.8 -1.8 4.1 95 0.3 W 28 48 15 26 - - 0.4
30/09:30pm 4.8 -2.2 3.9 94 0.4 W 30 44 16 24 - - 0.2
30/09:00pm 5.0 -2.2 3.2 88 0.8 W 30 54 16 29 - - 0.2
30/08:38pm 5.2 -1.7 2.7 84 1.1 WNW 28 48 15 26 - - 0.2
30/08:31pm 5.3 -0.8 2.8 84 1.1 W 24 37 13 20 - - 0.2
30/08:30pm 5.3 -0.4 2.8 84 1.1 W 22 37 12 20 - - 0.2
30/08:00pm 5.1 -1.5 2.3 82 1.2 W 26 43 14 23 - - 0.2
30/07:30pm 5.2 -2.1 2.6 83 1.1 W 30 48 16 26 - - 0.2
30/07:00pm 5.4 -2.9 2.2 80 1.4 W 35 61 19 33 - - 0.2
30/06:30pm 5.3 -3.4 2.3 81 1.3 W 37 57 20 31 - - 0.2
30/06:26pm 5.2 -3.1 2.2 81 1.3 W 35 54 19 29 - - 0.2
30/06:15pm 5.1 -2.7 2.8 85 1.0 W 33 50 18 27 - - 0.2
30/06:00pm 5.1 -2.5 2.6 84 1.1 W 32 54 17 29 - - 0.2
30/05:30pm 5.4 -2.3 2.4 81 1.3 W 32 52 17 28 - - 0.2
30/05:20pm 6.4 -1.7 3.4 81 1.4 W 35 57 19 31 - - 0.2
30/05:00pm 5.8 -2.4 2.8 81 1.3 W 35 57 19 31 - - 0.2
30/04:30pm 5.8 -2.8 2.6 80 1.4 W 37 57 20 31 - - 0.2
30/04:00pm 5.6 -2.2 2.6 81 1.3 W 33 52 18 28 - - 0.2
30/03:30pm 5.8 -2.5 2.4 79 1.5 W 35 59 19 32 - - 0.2
30/03:00pm 5.4 -2.9 1.9 78 1.5 W 35 54 19 29 - - 0.2
30/02:35pm 4.9 -2.8 2.3 83 1.1 W 32 56 17 30 - - 0.2
30/02:30pm 4.7 -3.2 2.1 83 1.1 W 33 56 18 30 - - 0.2
30/02:12pm 4.6 -3.1 2.1 84 1.1 W 32 56 17 30 - - 0.2
30/02:00pm 4.6 -1.5 2.9 89 0.7 W 24 41 13 22 - - 0.2
30/01:36pm 4.6 -2.2 2.9 89 0.7 WNW 28 52 15 28 - - 0.2
30/01:30pm 4.8 -1.2 3.5 91 0.6 WNW 24 46 13 25 - - 0.2
30/01:21pm 4.5 -2.4 2.7 88 0.8 WNW 28 46 15 25 - - 0.2
30/01:00pm 5.5 -0.5 3.3 86 1.0 WNW 24 37 13 20 - - 0.0
30/12:30pm 5.3 -0.8 3.0 85 1.0 WNW 24 39 13 21 - - 0.0
30/12:05pm 4.8 -0.8 3.5 91 0.6 WNW 22 37 12 20 - - 0.0
30/12:00pm 4.5 -1.5 3.2 91 0.6 WNW 24 41 13 22 - - 0.0
30/11:30am 4.6 0.0 3.6 93 0.4 WNW 17 32 9 17 - - 0.0
30/11:16am 4.5 -1.2 2.8 89 0.7 WNW 22 39 12 21 - - 0.0
30/11:00am 4.8 -0.9 2.8 87 0.9 WNW 22 41 12 22 - - 0.0
30/10:34am 4.8 -0.9 3.0 88 0.8 WNW 22 37 12 20 - - 0.0
30/10:30am 4.6 -0.7 2.9 89 0.7 WNW 20 37 11 20 - - 0.0
30/10:16am 4.5 -0.8 2.8 89 0.7 WNW 20 56 11 30 - - 0.0
30/10:00am 4.7 -0.8 2.1 83 1.1 WNW 20 39 11 21 - - 0.0
30/09:48am 4.7 -1.5 1.9 82 1.2 NW 24 43 13 23 - - 0.0
30/09:30am 5.0 -0.5 1.8 80 1.4 WNW 20 39 11 21 - - 0.0
30/09:00am 4.9 -1.7 1.9 81 1.3 WNW 26 54 14 29 - - 4.6
30/08:30am 4.7 -2.4 1.4 79 1.4 WNW 28 48 15 26 - - 4.6
30/08:00am 4.8 -2.7 1.3 78 1.5 WNW 30 50 16 27 - - 4.6
30/07:30am 4.5 -3.4 1.2 79 1.4 WNW 32 59 17 32 - - 4.6
30/07:00am 4.2 -4.7 0.7 78 1.4 WNW 37 65 20 35 - - 4.6
30/06:30am 4.1 -4.4 0.6 78 1.4 WNW 35 67 19 36 - - 4.6
30/06:00am 3.9 -4.7 0.4 78 1.4 W 35 65 19 35 - - 4.6
30/05:30am 4.0 -5.0 0.3 77 1.5 WNW 37 61 20 33 - - 4.6
30/05:00am 4.2 -4.4 0.4 76 1.6 W 35 56 19 30 - - 4.6
30/04:30am 4.1 -4.9 0.4 77 1.5 WNW 37 56 20 30 - - 4.6
30/04:00am 3.9 -4.3 0.6 79 1.4 WNW 33 63 18 34 - - 4.6
30/03:30am 4.0 -4.2 0.5 78 1.4 W 33 56 18 30 - - 4.6
30/03:00am 4.4 -3.8 0.4 75 1.6 WNW 33 56 18 30 - - 4.6
30/02:30am 4.7 -3.9 -0.1 71 2.0 WNW 35 57 19 31 - - 4.6
30/02:00am 4.7 -3.4 -0.1 71 2.0 WNW 32 54 17 29 - - 4.6
30/01:30am 5.1 -4.0 -0.3 68 2.2 WNW 37 61 20 33 - - 4.6
30/01:00am 5.2 -2.9 0.0 69 2.1 W 32 54 17 29 - - 4.6
30/12:30am 5.3 -2.0 -0.1 68 2.2 W 28 50 15 27 - - 4.6
30/12:00am 5.1 -3.0 -0.5 67 2.3 W 32 52 17 28 - - 4.6
 
Date/Time
EST
Temp
°C
App
Temp
°C
Dew
Point
°C
Rel
Hum
%
Delta-T
°C
Wind Press
QNH
hPa
Press
MSL
hPa
Rain since
9am
mm
Dir  Spd
km/h
Gust
km/h
Spd
kts
Gust
kts
29/11:30pm 5.0 -2.7 -0.2 69 2.1 W 30 54 16 29 - - 4.6
29/11:11pm 5.1 -2.6 -0.1 69 2.1 W 30 52 16 28 - - 4.6
29/11:00pm 5.1 -2.6 -0.1 69 2.1 W 30 44 16 24 - - 4.6
29/10:30pm 5.2 -2.5 0.2 70 2.1 W 30 52 16 28 - - 4.6
29/10:00pm 5.2 -3.0 0.6 72 1.9 WNW 33 52 18 28 - - 4.6
29/09:30pm 5.2 -2.7 1.3 76 1.7 WNW 32 61 17 33 - - 4.4
29/09:00pm 4.6 -3.3 2.0 83 1.1 W 33 56 18 30 - - 4.2
29/08:55pm 4.3 -3.0 2.2 86 0.9 WNW 30 52 16 28 - - 4.2
29/08:39pm 3.9 -3.4 2.4 90 0.6 WNW 30 65 16 35 - - 4.2
29/08:30pm 4.5 -5.0 2.0 84 1.1 W 41 74 22 40 - - 4.0
29/08:26pm 5.2 -3.6 1.3 76 1.7 W 37 74 20 40 - - 3.8
29/08:24pm 5.9 -2.6 1.2 72 2.0 W 35 74 19 40 - - 3.8
29/08:16pm 7.3 -0.1 -0.4 58 3.2 WNW 28 46 15 25 - - 3.8
29/08:00pm 7.1 0.5 -0.6 58 3.2 WNW 24 43 13 23 - - 3.8
29/07:30pm 7.2 -0.2 -1.0 56 3.4 WNW 28 50 15 27 - - 3.8
29/07:00pm 7.5 -0.2 -0.2 58 3.2 WNW 30 52 16 28 - - 3.8
29/06:30pm 8.0 0.6 1.6 64 2.8 WNW 30 52 16 28 - - 3.8
29/06:28pm 7.9 0.8 1.5 64 2.8 WNW 28 52 15 28 - - 3.8
29/06:00pm 8.1 1.3 1.0 61 3.1 WNW 26 43 14 23 - - 3.8
29/05:51pm 8.4 1.3 1.1 60 3.2 W 28 50 15 27 - - 3.8
29/05:30pm 8.6 1.6 2.2 64 2.9 W 28 41 15 22 - - 3.8
29/05:14pm 8.9 1.9 1.8 61 3.2 W 28 46 15 25 - - 3.8
29/05:00pm 10.0 4.0 3.3 63 3.1 W 24 37 13 20 - - 3.8
29/04:30pm 10.0 3.7 3.5 64 3.0 WNW 26 39 14 21 - - 3.8
29/04:00pm 11.2 4.0 2.8 56 3.9 WNW 30 50 16 27 - - 3.8
29/03:30pm 10.4 2.7 2.5 58 3.6 W 32 52 17 28 - - 3.8
29/03:00pm 12.1 4.9 0.8 46 5.0 WNW 28 46 15 25 - - 3.8
29/02:30pm 12.3 6.2 2.5 51 4.5 NW 24 43 13 23 - - 3.8
29/02:00pm 11.2 4.9 4.0 61 3.4 WNW 26 48 14 26 - - 3.8
29/01:58pm 10.7 4.9 4.2 64 3.1 WNW 24 48 13 26 - - 3.8
29/01:30pm 11.6 6.8 7.3 75 2.2 WNW 22 37 12 20 - - 3.8
29/01:04pm 9.5 4.7 7.3 86 1.1 WNW 22 37 12 20 - - 3.8
29/01:00pm 8.9 3.8 7.8 93 0.6 WNW 24 46 13 25 - - 3.8
29/12:59pm 8.7 3.2 7.5 92 0.6 WNW 26 46 14 25 - - 3.8
29/12:36pm 9.4 5.1 7.8 90 0.8 NNW 20 61 11 33 - - 1.4
29/12:35pm 10.1 6.2 8.5 90 0.8 NNW 19 52 10 28 - - 0.8
29/12:30pm 11.0 7.6 9.3 89 0.9 NNW 17 32 9 17 - - 0.2
29/12:00pm 11.9 8.0 9.5 85 1.3 WNW 20 44 11 24 - - 0.2
29/11:30am 11.1 6.8 9.4 89 0.9 NW 22 39 12 21 - - 0.2
29/11:00am 11.0 7.6 10.4 96 0.3 NW 19 32 10 17 - - 0.2
29/10:52am 10.1 6.2 9.3 95 0.4 NW 20 39 11 21 - - 0.2
29/10:40am 9.9 6.5 9.1 95 0.4 NW 17 33 9 18 - - 0.2
29/10:33am 9.7 6.2 8.9 95 0.4 NNW 17 28 9 15 - - 0.2
29/10:30am 9.7 5.9 8.9 95 0.4 NNW 19 28 10 15 - - 0.2
29/10:10am 9.3 6.5 8.7 96 0.3 N 13 28 7 15 - - 0.2
29/10:02am 9.3 6.6 8.8 97 0.3 N 13 24 7 13 - - 0.2
29/10:00am 9.2 6.4 8.7 97 0.3 N 13 24 7 13 - - 0.2
29/09:46am 8.7 5.8 8.3 97 0.2 NNE 13 24 7 13 - - 0.2
29/09:45am 8.7 5.5 8.3 97 0.2 NNE 15 24 8 13 - - 0.2
29/09:30am 8.7 5.5 8.3 97 0.2 NNE 15 32 8 17 - - 0.0
29/09:18am 8.5 4.4 7.9 96 0.3 NNE 19 33 10 18 - - 0.0
29/09:00am 8.4 4.7 8.0 97 0.2 NNE 17 30 9 16 - - 1.0
29/08:39am 7.8 3.5 7.2 96 0.3 NE 19 35 10 19 - - 0.8
29/08:30am 7.8 3.9 7.2 96 0.3 NNE 17 37 9 20 - - 0.8
29/08:00am 7.3 3.2 6.4 94 0.4 NE 17 28 9 15 - - 0.6
29/07:30am 7.4 3.3 6.0 91 0.7 NE 17 28 9 15 - - 0.2
29/07:00am 7.4 3.6 5.9 90 0.7 NNE 15 28 8 15 - - 0.2
29/06:30am 6.9 3.0 5.2 89 0.8 NE 15 26 8 14 - - 0.2
29/06:00am 7.9 4.1 4.1 77 1.8 NNE 13 24 7 13 - - 0.0
29/05:30am 7.8 3.9 3.5 74 2.0 NE 13 19 7 10 - - 0.0
29/05:00am 8.0 4.0 3.1 71 2.2 NE 13 20 7 11 - - 0.0
29/04:30am 7.8 3.9 3.3 73 2.0 NE 13 20 7 11 - - 0.0
29/04:00am 7.6 3.7 3.5 75 1.9 NE 13 19 7 10 - - 0.0
29/03:30am 7.5 3.3 3.7 77 1.7 NE 15 22 8 12 - - 0.0
29/03:00am 7.4 3.2 4.0 79 1.6 NE 15 24 8 13 - - 0.0
29/02:30am 6.9 3.2 4.2 83 1.2 NE 13 19 7 10 - - 0.0
29/02:00am 6.9 3.2 4.6 85 1.1 NE 13 19 7 10 - - 0.0
29/01:30am 6.3 2.8 5.3 93 0.5 NE 13 20 7 11 - - 0.0
29/01:00am 5.8 2.2 5.1 95 0.3 NE 13 26 7 14 - - 0.0
29/12:45am 5.7 2.5 5.0 95 0.3 NE 11 20 6 11 - - 0.0
29/12:30am 5.7 2.4 4.8 94 0.4 ENE 11 19 6 10 - - 0.0
29/12:00am 6.1 2.2 5.2 94 0.4 ENE 15 24 8 13 - - 0.0
 
Date/Time
EST
Temp
°C
App
Temp
°C
Dew
Point
°C
Rel
Hum
%
Delta-T
°C
Wind Press
QNH
hPa
Press
MSL
hPa
Rain since
9am
mm
Dir  Spd
km/h
Gust
km/h
Spd
kts
Gust
kts
28/11:30pm 6.2 2.7 5.3 94 0.4 ENE 13 20 7 11 - - 0.0
28/11:04pm 5.5 1.8 4.6 94 0.4 ENE 13 22 7 12 - - 0.0
28/11:00pm 5.4 1.7 4.5 94 0.4 ENE 13 22 7 12 - - 0.0
28/10:30pm 5.2 1.4 4.0 92 0.5 ENE 13 20 7 11 - - 0.0
28/10:00pm 5.5 1.8 4.2 91 0.6 ENE 13 20 7 11 - - 0.0
28/09:30pm 5.4 2.0 3.9 90 0.7 ENE 11 17 6 9 - - 0.0
28/09:00pm 5.6 2.5 3.8 88 0.8 ENE 9 13 5 7 - - 0.0
28/08:30pm 5.7 2.2 3.7 87 0.9 ENE 11 17 6 9 - - 0.0

Latest Capital City Observations: Canberra | Sydney | Melbourne | Brisbane | Adelaide | Perth | Hobart | Darwin

Other Formats:

Comma delimited format used in spreadsheet applications
http://www.bom.gov.au/fwo/IDN60901/IDN60901.94743.axf

JavaScript Object Notation format (JSON) in row-major order
http://www.bom.gov.au/fwo/IDN60901/IDN60901.94743.json